Baker, CA (92309)

7:01 PM PDT on August 29, 2015 (GMT -0700)
Fort Irwin/Barstow, Bicycle L | | Change Station
CLOSE
Current Station
Airport
Location: Fort Irwin/Barstow, Bicycle L,
Elevation: 2349 ft
Nearby Weather Stations

Elev 2349 ft 35.28 °N, 116.63 °W | Updated 6 minutes ago

Clear
Clear
96 °F
Feels Like 96 °F
N
22
Wind Variable Wind from WSW
Gusts 34 mph

Today
High -- | Low -- °F
--% Chance of Precip.
Yesterday
High -- | Low -- °F
Precip. -- in
6:14 AM 7:15 PM
Full, 100% visible
Pressure 29.68 in
Visibility 10.0 miles
Clouds Clear
Dew Point 34 °F
Humidity 12%
Rainfall 0.00 in
Snow Depth Not available.
UV 0 out of 12
Pollen 6.60 out of 12
Air Quality Not available.
Flu Activity Not available.
METAR KBYS 300155Z AUTO 25019G30KT 10SM CLR 35/01 A2986 RMK AO2 PK WND 24030/0119 SLP048 T03530012 $
Pressure 29.68 in
Visibility 10.0 miles
Clouds Clear
Dew Point 34 °F
Humidity 12%
Rainfall 0.00 in
Snow Depth Not available.
UV 0 out of 12
Pollen 6.60 out of 12
Air Quality Not available.
Flu Activity Not available.
METAR KBYS 300155Z AUTO 25019G30KT 10SM CLR 35/01 A2986 RMK AO2 PK WND 24030/0119 SLP048 T03530012 $

10-Day Weather Forecast

×

Almanac

Astronomy

Aug. 29, 2015 Rise Set
Actual Time
Civil Twilight
Nautical Twilight
Astronomical Twilight
Moon
Length of Visible Light
Length of Day
Tomorrow will be .
, % of the Moon is Illuminated

Today's Extremes

State Highs State Lows

Community

WunderPhotos

Upload Photos

1,850,847 photos uploaded!

WunderBlogs® & News

Nearby

Air Quality

  Air Quality AQ Index Pollutant
Not available.

Snow Depth

Station Depth Elevation

Earthquake Activity

City Distance Mag. Time & Date
Minimum magnitude displayed is 2.5.

Coastal Water Temperatures

Place Temperature

Stations

Nearby Weather Stations

Station Location Temp. Windchill Dew Point Humidity Wind Precip. Elev Updated Type